createdAt,value
2023-04-03T00:01:17.591Z,100001.83
2023-04-03T00:03:45.448Z,99993.34
2023-04-03T00:06:13.620Z,99989.52
2023-04-03T00:08:41.966Z,99995.75
2023-04-03T00:11:10.867Z,99995.77
2023-04-03T00:13:39.835Z,99998.17
2023-04-03T00:16:10.060Z,99997.32
2023-04-03T00:18:39.580Z,99998.70
2023-04-03T00:21:08.850Z,99999.23
2023-04-03T00:23:36.824Z,99997.66
2023-04-03T00:26:04.789Z,100000.79
2023-04-03T00:28:32.712Z,100001.83
2023-04-03T00:31:00.863Z,100000.62
2023-04-03T00:33:28.801Z,100004.24
2023-04-03T00:35:56.884Z,100003.90
2023-04-03T00:38:25.139Z,100003.02
2023-04-03T00:40:53.056Z,100003.02
2023-04-03T00:43:27.493Z,100005.80
2023-04-03T00:45:57.431Z,100007.20
2023-04-03T00:48:41.327Z,100007.02
2023-04-03T00:51:14.195Z,100009.10
2023-04-03T00:53:54.298Z,100006.16
2023-04-03T00:56:25.988Z,100007.90
2023-04-03T00:59:02.592Z,100006.52
2023-04-03T01:01:31.660Z,100008.94
2023-04-03T01:04:01.580Z,100009.11
2023-04-03T01:06:34.008Z,100012.58
2023-04-03T01:09:07.121Z,100010.50
2023-04-03T01:11:35.105Z,100014.48
2023-04-03T01:14:03.384Z,100011.55
2023-04-03T01:16:32.919Z,100013.45
2023-04-03T01:19:02.405Z,100014.66
2023-04-03T01:21:52.425Z,100019.52
2023-04-03T01:24:32.747Z,100021.44
2023-04-03T01:27:03.736Z,100022.13
2023-04-03T01:29:31.784Z,100024.71
2023-04-03T01:32:01.860Z,100023.66
2023-04-03T01:34:30.695Z,100026.44
2023-04-03T01:36:59.395Z,100034.05
2023-04-03T01:39:27.407Z,100036.29
2023-04-03T01:41:55.428Z,100032.14
2023-04-03T01:44:30.912Z,100038.54
2023-04-03T01:46:58.895Z,100037.33
2023-04-03T01:49:28.456Z,100040.95
2023-04-03T01:51:56.733Z,100044.92
2023-04-03T01:54:24.585Z,100049.95
2023-04-03T01:56:52.761Z,100050.64
2023-04-03T01:59:21.005Z,100054.77
2023-04-03T02:01:48.913Z,100057.21
2023-04-03T02:04:16.854Z,100059.29
2023-04-03T02:06:44.745Z,100059.63
2023-04-03T02:09:12.688Z,100053.21
2023-04-03T02:11:40.704Z,100055.11
2023-04-03T02:14:08.971Z,100061.84
2023-04-03T02:16:36.961Z,100065.66
2023-04-03T02:19:04.918Z,100064.61
2023-04-03T02:21:32.962Z,100065.29
2023-04-03T02:24:00.819Z,100070.46
2023-04-03T02:26:28.669Z,100072.20
2023-04-03T02:28:56.533Z,100068.90
2023-04-03T02:31:25.185Z,100072.88
2023-04-03T02:33:53.484Z,100068.20
2023-04-03T02:36:21.372Z,100070.64
2023-04-03T02:38:53.294Z,100078.42
2023-04-03T02:41:22.105Z,100077.04
2023-04-03T02:43:50.647Z,100072.70
2023-04-03T02:46:18.679Z,100072.37
2023-04-03T02:48:46.665Z,100075.48
2023-04-03T02:51:14.562Z,100080.84
2023-04-03T02:53:42.445Z,100081.36
2023-04-03T02:56:14.304Z,100081.02
2023-04-03T02:58:42.266Z,100083.60
2023-04-03T03:01:11.117Z,100085.33
2023-04-03T03:03:39.199Z,100083.42
2023-04-03T03:06:08.531Z,100092.94
2023-04-03T03:08:36.716Z,100094.67
2023-04-03T03:11:05.859Z,100097.61
2023-04-03T03:13:35.343Z,100091.37
2023-04-03T03:16:03.792Z,100089.98
2023-04-03T03:18:31.813Z,100090.16
2023-04-03T03:21:01.819Z,100087.23
2023-04-03T03:23:31.124Z,100092.58
2023-04-03T03:26:01.840Z,100095.17
2023-04-03T03:28:29.750Z,100091.54
2023-04-03T03:30:58.708Z,100092.05
2023-04-03T03:33:27.537Z,100090.85
2023-04-03T03:35:56.366Z,100095.34
2023-04-03T03:38:24.615Z,100097.40
2023-04-03T03:40:52.932Z,100103.27
2023-04-03T03:43:21.969Z,100096.70
2023-04-03T03:45:54.468Z,100093.42
2023-04-03T03:48:24.125Z,100097.55
2023-04-03T03:50:52.136Z,100098.77
2023-04-03T03:53:21.885Z,100097.71
2023-04-03T03:55:51.529Z,100107.40
2023-04-03T03:58:21.638Z,100107.21
2023-04-03T04:00:49.596Z,100103.55
2023-04-03T04:03:17.713Z,100100.23
2023-04-03T04:05:47.128Z,100102.64
2023-04-03T04:08:15.391Z,100106.95
2023-04-03T04:10:43.875Z,100105.05
2023-04-03T04:13:14.773Z,100104.02
2023-04-03T04:15:43.934Z,100102.63
2023-04-03T04:18:11.923Z,100104.19
2023-04-03T04:20:41.260Z,100107.64
2023-04-03T04:23:09.835Z,100106.25
2023-04-03T04:25:38.511Z,100115.94
2023-04-03T04:28:07.207Z,100118.03
2023-04-03T04:30:35.246Z,100120.28
2023-04-03T04:33:03.533Z,100126.33
2023-04-03T04:35:32.604Z,100126.48
2023-04-03T04:38:00.940Z,100122.30
2023-04-03T04:40:29.624Z,100125.58
2023-04-03T04:42:57.816Z,100124.56
2023-04-03T04:45:26.014Z,100129.92
2023-04-03T04:47:56.695Z,100136.48
2023-04-03T04:50:25.348Z,100134.58
2023-04-03T04:52:53.484Z,100135.63
2023-04-03T04:55:21.697Z,100144.08
2023-04-03T04:57:51.473Z,100148.04
2023-04-03T05:00:19.915Z,100149.60
2023-04-03T05:02:48.181Z,100149.09
2023-04-03T05:05:16.455Z,100150.27
2023-04-03T05:07:44.442Z,100161.09
2023-04-03T05:10:12.468Z,100154.80
2023-04-03T05:12:41.272Z,100151.29
2023-04-03T05:15:10.327Z,100161.12
2023-04-03T05:17:38.896Z,100164.21
2023-04-03T05:20:08.309Z,100160.89
2023-04-03T05:22:36.404Z,100162.77
2023-04-03T05:25:08.068Z,100171.20
2023-04-03T05:27:36.460Z,100161.13
2023-04-03T05:30:05.340Z,100161.47
2023-04-03T05:32:33.760Z,100172.73
2023-04-03T05:35:11.982Z,100174.83
2023-04-03T05:37:41.120Z,100171.87
2023-04-03T05:40:10.086Z,100164.45
2023-04-03T05:42:40.724Z,100172.45
2023-04-03T05:45:08.874Z,100178.05
2023-04-03T05:47:36.887Z,100174.64
2023-04-03T05:50:05.573Z,100167.65
2023-04-03T05:52:41.272Z,100176.23
2023-04-03T05:55:09.424Z,100180.40
2023-04-03T05:57:37.527Z,100183.52
2023-04-03T06:00:10.478Z,100185.08
2023-04-03T06:02:43.023Z,100184.58
2023-04-03T06:05:14.299Z,100180.08
2023-04-03T06:07:42.434Z,100185.45
2023-04-03T06:10:12.934Z,100180.63
2023-04-03T06:12:41.323Z,100181.67
2023-04-03T06:15:11.039Z,100183.04
2023-04-03T06:17:38.911Z,100188.77
2023-04-03T06:20:07.346Z,100183.05
2023-04-03T06:22:36.950Z,100182.19
2023-04-03T06:25:05.888Z,100183.39
2023-04-03T06:27:33.717Z,100189.11
2023-04-03T06:30:01.583Z,100188.58
2023-04-03T06:32:29.505Z,100187.70
2023-04-03T06:34:58.470Z,100192.02
2023-04-03T06:37:33.294Z,100189.42
2023-04-03T06:40:04.124Z,100185.10
2023-04-03T06:42:32.036Z,100190.25
2023-04-03T06:45:06.078Z,100194.75
2023-04-03T06:47:33.970Z,100196.33
2023-04-03T06:50:02.101Z,100197.69
2023-04-03T06:52:29.958Z,100197.11
2023-04-03T06:55:00.393Z,100197.84
2023-04-03T06:57:28.208Z,100204.12
2023-04-03T06:59:56.545Z,100204.99
2023-04-03T07:02:24.579Z,100206.21
2023-04-03T07:04:52.669Z,100211.59
2023-04-03T07:07:20.718Z,100218.14
2023-04-03T07:09:49.075Z,100216.56
2023-04-03T07:12:17.154Z,100229.27
2023-04-03T07:14:45.017Z,100226.55
2023-04-03T07:17:12.830Z,100222.57
2023-04-03T07:19:41.140Z,100225.34
2023-04-03T07:22:09.239Z,100226.38
2023-04-03T07:24:37.284Z,100228.64
2023-04-03T07:27:05.266Z,100228.80
2023-04-03T07:29:33.323Z,100236.44
2023-04-03T07:32:01.702Z,100234.36
2023-04-03T07:34:29.788Z,100234.70
2023-04-03T07:36:57.686Z,100243.04
2023-04-03T07:39:26.448Z,100245.30
2023-04-03T07:41:56.345Z,100240.44
2023-04-03T07:44:25.100Z,100244.42
2023-04-03T07:46:53.015Z,100238.84
2023-04-03T07:49:20.908Z,100244.15
2023-04-03T07:51:49.558Z,100236.13
2023-04-03T07:54:17.437Z,100232.10
2023-04-03T07:56:46.098Z,100236.38
2023-04-03T07:59:14.087Z,100232.55
2023-04-03T08:01:41.920Z,100233.91
2023-04-03T08:04:09.869Z,100236.08
2023-04-03T08:06:46.378Z,100229.38
2023-04-03T08:09:16.729Z,100230.69
2023-04-03T08:11:45.539Z,100232.09
2023-04-03T08:14:17.926Z,100231.61
2023-04-03T08:16:48.065Z,100233.26
2023-04-03T08:19:25.523Z,100230.88
2023-04-03T08:21:58.615Z,100237.81
2023-04-03T08:24:26.479Z,100238.70
2023-04-03T08:26:54.308Z,100232.95
2023-04-03T08:29:22.437Z,100227.58
2023-04-03T08:31:51.225Z,100224.88
2023-04-03T08:34:20.382Z,100236.96
2023-04-03T08:36:48.778Z,100238.17
2023-04-03T08:39:16.930Z,100234.87
2023-04-03T08:41:47.499Z,100233.18
2023-04-03T08:44:49.293Z,100226.33
2023-04-03T08:47:32.468Z,100225.45
2023-04-03T08:50:04.046Z,100231.44
2023-04-03T08:52:55.161Z,100231.45
2023-04-03T08:55:44.818Z,100230.39
2023-04-03T08:58:41.947Z,100229.56
2023-04-03T09:01:41.996Z,100226.97
2023-04-03T09:04:19.628Z,100222.16
2023-04-03T09:06:53.743Z,100218.70
2023-04-03T09:09:42.033Z,100218.92
2023-04-03T09:12:20.817Z,100224.85
2023-04-03T09:15:20.071Z,100222.64
2023-04-03T09:18:17.934Z,100226.33
2023-04-03T09:20:57.766Z,100230.66
2023-04-03T09:23:53.428Z,100232.62
2023-04-03T09:26:29.298Z,100231.02
2023-04-03T09:29:02.772Z,100230.33
2023-04-03T09:31:39.638Z,100228.78
2023-04-03T09:34:18.296Z,100233.52
2023-04-03T09:36:52.708Z,100222.48
2023-04-03T09:39:29.875Z,100226.44
2023-04-03T09:42:01.157Z,100224.77
2023-04-03T09:44:31.406Z,100225.38
2023-04-03T09:47:00.083Z,100235.73
2023-04-03T09:49:28.192Z,100239.67
2023-04-03T09:51:56.460Z,100239.41
2023-04-03T09:54:32.421Z,100237.43
2023-04-03T09:57:08.918Z,100237.20
2023-04-03T09:59:42.236Z,100232.63
2023-04-03T10:02:24.809Z,100238.71
2023-04-03T10:05:02.362Z,100237.62
2023-04-03T10:07:39.065Z,100238.80
2023-04-03T10:10:26.617Z,100237.77
2023-04-03T10:13:20.600Z,100230.11
2023-04-03T10:15:59.055Z,100235.10
2023-04-03T10:18:54.135Z,100233.28
2023-04-03T10:22:03.534Z,100242.14
2023-04-03T10:24:54.982Z,100232.70
2023-04-03T10:27:41.951Z,100231.77
2023-04-03T10:30:40.943Z,100234.17
2023-04-03T10:33:18.329Z,100232.52
2023-04-03T10:35:58.164Z,100227.53
2023-04-03T10:38:44.732Z,100224.81
2023-04-03T10:41:38.980Z,100221.29
2023-04-03T10:44:15.836Z,100220.88
2023-04-03T10:46:49.998Z,100219.77
2023-04-03T10:49:23.882Z,100215.39
2023-04-03T10:52:18.420Z,100211.48
2023-04-03T10:54:57.916Z,100213.05
2023-04-03T10:57:26.698Z,100215.13
2023-04-03T11:00:10.392Z,100215.23
2023-04-03T11:03:01.894Z,100215.37
2023-04-03T11:05:41.928Z,100204.61
2023-04-03T11:08:31.450Z,100199.38
2023-04-03T11:11:05.606Z,100196.66
2023-04-03T11:13:56.393Z,100198.91
2023-04-03T11:16:28.089Z,100193.67
2023-04-03T11:19:04.395Z,100205.69
2023-04-03T11:21:54.173Z,100208.02
2023-04-03T11:24:26.343Z,100208.55
2023-04-03T11:26:57.168Z,100206.19
2023-04-03T11:29:35.482Z,100193.08
2023-04-03T11:32:41.502Z,100191.34
2023-04-03T11:35:10.428Z,100188.04
2023-04-03T11:37:47.265Z,100190.26
2023-04-03T11:40:25.639Z,100192.65
2023-04-03T11:43:03.753Z,100201.46
2023-04-03T11:45:52.005Z,100195.71
2023-04-03T11:48:25.014Z,100189.23
2023-04-03T11:50:53.331Z,100188.52
2023-04-03T11:53:40.146Z,100179.66
2023-04-03T11:56:29.174Z,100185.55
2023-04-03T11:59:05.956Z,100197.14
2023-04-03T12:01:55.881Z,100188.33
2023-04-03T12:04:26.670Z,100173.52
2023-04-03T12:07:19.007Z,100177.94
2023-04-03T12:09:46.946Z,100182.17
2023-04-03T12:12:27.138Z,100189.58
2023-04-03T12:14:55.428Z,100199.10
2023-04-03T12:17:30.338Z,100197.91
2023-04-03T12:19:58.289Z,100189.74
2023-04-03T12:22:26.321Z,100189.69
2023-04-03T12:24:54.231Z,100182.50
2023-04-03T12:27:25.229Z,100177.59
2023-04-03T12:30:05.097Z,100181.42
2023-04-03T12:32:54.077Z,100185.23
2023-04-03T12:35:41.529Z,100182.35
2023-04-03T12:38:26.240Z,100188.52
2023-04-03T12:41:04.488Z,100185.81
2023-04-03T12:43:37.401Z,100192.38
2023-04-03T12:46:08.119Z,100184.66
2023-04-03T12:48:49.160Z,100183.05
2023-04-03T12:51:45.520Z,100180.66
2023-04-03T12:54:35.224Z,100184.70
2023-04-03T12:57:19.330Z,100183.29
2023-04-03T12:59:48.312Z,100189.03
2023-04-03T13:02:32.724Z,100187.86
2023-04-03T13:05:10.921Z,100184.39
2023-04-03T13:07:41.918Z,100180.56
2023-04-03T13:10:09.998Z,100180.61
2023-04-03T13:12:51.532Z,100186.09
2023-04-03T13:15:26.754Z,100177.82
2023-04-03T13:17:55.627Z,100175.62
2023-04-03T13:20:28.643Z,100174.65
2023-04-03T13:23:06.601Z,100179.02
2023-04-03T13:25:38.774Z,100180.64
2023-04-03T13:28:13.838Z,100177.86
2023-04-03T13:31:06.900Z,100176.91
2023-04-03T13:33:38.883Z,100179.14
2023-04-03T13:36:19.651Z,100181.60
2023-04-03T13:38:59.666Z,100183.79
2023-04-03T13:41:32.404Z,100179.05
2023-04-03T13:44:21.852Z,100174.95
2023-04-03T13:46:51.742Z,100167.42
2023-04-03T13:49:29.718Z,100165.77
2023-04-03T13:52:07.244Z,100173.77
2023-04-03T13:54:39.497Z,100169.17
2023-04-03T13:57:16.813Z,100166.19
2023-04-03T13:59:45.165Z,100168.11
2023-04-03T14:02:21.303Z,100165.97
2023-04-03T14:04:57.226Z,100160.20
2023-04-03T14:07:26.124Z,100163.86
2023-04-03T14:09:54.303Z,100155.05
2023-04-03T14:12:37.195Z,100152.48
2023-04-03T14:15:13.476Z,100150.83
2023-04-03T14:17:41.484Z,100156.23
2023-04-03T14:20:16.698Z,100155.05
2023-04-03T14:22:45.284Z,100160.83
2023-04-03T14:25:13.328Z,100158.30
2023-04-03T14:27:43.520Z,100156.66
2023-04-03T14:30:34.968Z,100150.71
2023-04-03T14:33:02.945Z,100154.48
2023-04-03T14:35:30.866Z,100154.11
2023-04-03T14:37:58.818Z,100150.84
2023-04-03T14:40:28.241Z,100160.67
2023-04-03T14:42:56.431Z,100155.52
2023-04-03T14:45:24.776Z,100154.18
2023-04-03T14:47:55.400Z,100154.00
2023-04-03T14:50:27.024Z,100153.15
2023-04-03T14:52:58.683Z,100152.85
2023-04-03T14:55:27.573Z,100148.56
2023-04-03T14:57:55.758Z,100152.94
2023-04-03T15:00:24.095Z,100154.58
2023-04-03T15:02:52.621Z,100152.36
2023-04-03T15:05:20.905Z,100148.80
2023-04-03T15:07:57.319Z,100150.08
2023-04-03T15:10:28.252Z,100153.77
2023-04-03T15:12:56.997Z,100150.12
2023-04-03T15:15:25.618Z,100153.31
2023-04-03T15:17:58.781Z,100156.30
2023-04-03T15:20:28.651Z,100165.34
2023-04-03T15:22:57.432Z,100162.31
2023-04-03T15:25:26.420Z,100167.50
2023-04-03T15:27:58.369Z,100166.86
2023-04-03T15:30:26.292Z,100166.35
2023-04-03T15:32:54.371Z,100169.30
2023-04-03T15:35:22.547Z,100169.67
2023-04-03T15:37:50.527Z,100166.23
2023-04-03T15:40:18.531Z,100171.80
2023-04-03T15:42:46.473Z,100180.00
2023-04-03T15:45:14.311Z,100178.52
2023-04-03T15:47:42.686Z,100178.24
2023-04-03T15:50:11.004Z,100176.73
2023-04-03T15:52:38.874Z,100177.65
2023-04-03T15:55:07.264Z,100175.09
2023-04-03T16:00:08.956Z,100180.88
2023-04-03T16:02:36.971Z,100181.25
2023-04-03T16:05:05.484Z,100182.69
2023-04-03T16:07:33.628Z,100182.52
2023-04-03T16:10:01.465Z,100182.02
2023-04-03T16:12:29.316Z,100184.11
2023-04-03T16:14:57.160Z,100183.41
2023-04-03T16:17:25.448Z,100186.91
2023-04-03T16:19:53.849Z,100185.70
2023-04-03T16:22:22.313Z,100182.24
2023-04-03T16:24:50.733Z,100183.95
2023-04-03T16:27:18.819Z,100186.73
2023-04-03T16:29:46.704Z,100192.15
2023-04-03T16:32:15.522Z,100196.20
2023-04-03T16:34:43.896Z,100190.84
2023-04-03T16:37:12.295Z,100195.23
2023-04-03T16:39:40.705Z,100195.92
2023-04-03T16:42:10.195Z,100199.10
2023-04-03T16:44:38.676Z,100196.89
2023-04-03T16:47:08.806Z,100196.39
2023-04-03T16:49:37.334Z,100201.81
2023-04-03T16:52:06.006Z,100199.23
2023-04-03T16:54:34.400Z,100198.38
2023-04-03T16:57:02.624Z,100198.22
2023-04-03T16:59:30.831Z,100197.55
2023-04-03T17:01:59.063Z,100194.59
2023-04-03T17:04:27.295Z,100188.50
2023-04-03T17:06:55.978Z,100185.73
2023-04-03T17:09:24.444Z,100190.77
2023-04-03T17:11:52.720Z,100192.86
2023-04-03T17:14:20.971Z,100189.41
2023-04-03T17:16:49.351Z,100192.58
2023-04-03T17:19:18.050Z,100192.58
2023-04-03T17:21:46.676Z,100196.44
2023-04-03T17:24:15.268Z,100194.04
2023-04-03T17:26:43.350Z,100196.49
2023-04-03T17:29:11.188Z,100202.23
2023-04-03T17:31:39.413Z,100203.81
2023-04-03T17:34:08.239Z,100206.95
2023-04-03T17:36:36.579Z,100207.16
2023-04-03T17:39:05.285Z,100206.64
2023-04-03T17:41:33.393Z,100208.58
2023-04-03T17:44:02.047Z,100207.54
2023-04-03T17:46:31.382Z,100210.16
2023-04-03T17:49:00.716Z,100213.81
2023-04-03T17:51:28.770Z,100215.39
2023-04-03T17:53:56.785Z,100218.38
2023-04-03T17:56:29.960Z,100218.40
2023-04-03T17:58:58.627Z,100219.27
2023-04-03T18:01:30.369Z,100216.31
2023-04-03T18:04:01.132Z,100218.75
2023-04-03T18:06:33.891Z,100221.38
2023-04-03T18:09:07.411Z,100218.77
2023-04-03T18:11:35.942Z,100215.10
2023-04-03T18:14:07.787Z,100218.05
2023-04-03T18:16:36.348Z,100217.88
2023-04-03T18:21:37.014Z,100220.14
2023-04-03T18:24:10.978Z,100224.85
2023-04-03T18:26:42.051Z,100224.50
2023-04-03T18:29:11.966Z,100222.25
2023-04-03T18:31:46.205Z,100222.96
2023-04-03T18:34:14.152Z,100223.83
2023-04-03T18:36:42.335Z,100222.45
2023-04-03T18:39:10.548Z,100223.48
2023-04-03T18:41:39.287Z,100223.14
2023-04-03T18:44:12.260Z,100220.52
2023-04-03T18:46:40.884Z,100222.07
2023-04-03T18:49:11.407Z,100223.80
2023-04-03T18:51:39.965Z,100226.75
2023-04-03T18:54:09.964Z,100228.87
2023-04-03T18:56:38.758Z,100229.92
2023-04-03T18:59:07.106Z,100227.84
2023-04-03T19:01:35.488Z,100227.65
2023-04-03T19:04:05.222Z,100226.08
2023-04-03T19:06:35.590Z,100226.27
2023-04-03T19:09:06.527Z,100228.38
2023-04-03T19:11:34.701Z,100226.46
2023-04-03T19:14:15.273Z,100222.13
2023-04-03T19:16:45.328Z,100222.28
2023-04-03T19:19:13.924Z,100221.58
2023-04-03T19:21:42.114Z,100224.36
2023-04-03T19:24:12.171Z,100224.39
2023-04-03T19:26:41.850Z,100224.91
2023-04-03T19:29:10.724Z,100224.23
2023-04-03T19:31:39.655Z,100225.48
2023-04-03T19:34:07.789Z,100227.75
2023-04-03T19:36:37.035Z,100226.21
2023-04-03T19:39:06.120Z,100230.21
2023-04-03T19:41:36.801Z,100228.83
2023-04-03T19:44:07.408Z,100228.84
2023-04-03T19:46:36.483Z,100226.75
2023-04-03T19:49:04.948Z,100227.29
2023-04-03T19:51:33.155Z,100227.98
2023-04-03T19:54:01.343Z,100229.21
2023-04-03T19:56:29.555Z,100228.35
2023-04-03T19:58:57.652Z,100227.83
2023-04-03T20:01:27.891Z,100224.36
2023-04-03T20:03:57.213Z,100223.48
2023-04-03T20:06:25.667Z,100222.64
2023-04-03T20:08:53.725Z,100222.30
2023-04-03T20:11:22.930Z,100224.19
2023-04-03T20:13:52.098Z,100221.91
2023-04-03T20:16:24.307Z,100223.25
2023-04-03T20:18:55.131Z,100223.58
2023-04-03T20:21:32.295Z,100224.61
2023-04-03T20:24:02.199Z,100223.05
2023-04-03T20:26:31.619Z,100219.93
2023-04-03T20:29:01.637Z,100218.55
2023-04-03T20:31:30.252Z,100223.07
2023-04-03T20:33:58.247Z,100217.17
2023-04-03T20:36:28.508Z,100215.63
2023-04-03T20:38:57.577Z,100212.52
2023-04-03T20:41:26.044Z,100211.83
2023-04-03T20:43:53.949Z,100209.59
2023-04-03T20:46:25.443Z,100209.94
2023-04-03T20:48:53.641Z,100206.99
2023-04-03T20:51:21.777Z,100207.17
2023-04-03T20:53:49.802Z,100204.05
2023-04-03T20:56:18.076Z,100200.76
2023-04-03T20:58:46.554Z,100202.86
2023-04-03T21:01:22.860Z,100201.81
2023-04-03T21:03:54.775Z,100198.52
2023-04-03T21:07:02.564Z,100197.48
2023-04-03T21:10:07.746Z,100202.34
2023-04-03T21:13:13.444Z,100199.71
2023-04-03T21:15:48.075Z,100201.64
2023-04-03T21:18:34.334Z,100200.61
2023-04-03T21:21:02.972Z,100198.88
2023-04-03T21:23:32.235Z,100199.23
2023-04-03T21:26:01.090Z,100198.20
2023-04-03T21:28:29.065Z,100199.24
2023-04-03T21:30:56.952Z,100198.56
2023-04-03T21:33:24.793Z,100201.70
2023-04-03T21:35:57.952Z,100205.88
2023-04-03T21:38:28.721Z,100206.21
2023-04-03T21:40:57.921Z,100205.36
2023-04-03T21:43:25.927Z,100205.36
2023-04-03T21:45:58.712Z,100206.56
2023-04-03T21:48:30.873Z,100204.66
2023-04-03T21:51:02.763Z,100206.05
2023-04-03T21:53:33.644Z,100205.88
2023-04-03T21:56:02.687Z,100207.59
2023-04-03T21:58:32.049Z,100212.10
2023-04-03T22:01:13.813Z,100208.80
2023-04-03T22:03:44.201Z,100210.38
2023-04-03T22:06:14.131Z,100210.38
2023-04-03T22:08:42.561Z,100210.02
2023-04-03T22:11:14.457Z,100206.52
2023-04-03T22:13:43.727Z,100208.75
2023-04-03T22:16:12.802Z,100213.78
2023-04-03T22:18:40.896Z,100220.55
2023-04-03T22:21:09.277Z,100219.70
2023-04-03T22:23:37.794Z,100218.48
2023-04-03T22:26:09.439Z,100218.11
2023-04-03T22:28:39.371Z,100216.56
2023-04-03T22:31:08.071Z,100219.89
2023-04-03T22:33:38.914Z,100223.36
2023-04-03T22:36:08.517Z,100221.29
2023-04-03T22:38:37.412Z,100222.17
2023-04-03T22:41:07.177Z,100224.44
2023-04-03T22:43:37.912Z,100224.63
2023-04-03T22:46:09.085Z,100228.46
2023-04-03T22:48:38.700Z,100229.18
2023-04-03T22:51:09.967Z,100231.27
2023-04-03T22:53:38.487Z,100226.08
2023-04-03T22:56:11.176Z,100231.98
2023-04-03T22:58:39.402Z,100232.35
2023-04-03T23:01:09.988Z,100232.20
2023-04-03T23:03:40.086Z,100229.08
2023-04-03T23:06:09.469Z,100227.34
2023-04-03T23:08:41.985Z,100228.90
2023-04-03T23:11:10.055Z,100226.98
2023-04-03T23:13:38.286Z,100227.33
2023-04-03T23:16:06.698Z,100223.17
2023-04-03T23:18:34.706Z,100224.40
2023-04-03T23:21:04.043Z,100227.17
2023-04-03T23:23:32.268Z,100227.00
2023-04-03T23:26:02.217Z,100226.30
2023-04-03T23:28:30.462Z,100227.18
2023-04-03T23:31:01.405Z,100226.83
2023-04-03T23:33:31.868Z,100227.36
2023-04-03T23:36:05.809Z,100222.52
2023-04-03T23:38:33.959Z,100224.27
2023-04-03T23:41:02.171Z,100224.09
2023-04-03T23:43:31.253Z,100222.00
2023-04-03T23:45:59.220Z,100223.75
2023-04-03T23:48:27.055Z,100219.07
2023-04-03T23:50:54.896Z,100218.73
2023-04-03T23:53:22.774Z,100213.71
2023-04-03T23:55:50.859Z,100209.71
2023-04-03T23:58:18.664Z,100207.81
